sensor_id;sensor_type;location;lat;lon;timestamp;P1;durP1;ratioP1;P2;durP2;ratioP2
6249;SDS011;3158;52.148;11.568;2023-04-23T00:03:14;2.40;;;2.20;;
6249;SDS011;3158;52.148;11.568;2023-04-23T00:08:18;1.83;;;1.73;;
6249;SDS011;3158;52.148;11.568;2023-04-23T00:13:20;2.17;;;2.08;;
6249;SDS011;3158;52.148;11.568;2023-04-23T00:18:21;2.38;;;2.15;;
6249;SDS011;3158;52.148;11.568;2023-04-23T00:23:22;2.00;;;1.90;;
6249;SDS011;3158;52.148;11.568;2023-04-23T00:28:23;4.07;;;1.85;;
6249;SDS011;3158;52.148;11.568;2023-04-23T00:33:24;1.73;;;1.55;;
6249;SDS011;3158;52.148;11.568;2023-04-23T00:38:25;2.05;;;1.92;;
6249;SDS011;3158;52.148;11.568;2023-04-23T00:43:26;4.32;;;2.15;;
6249;SDS011;3158;52.148;11.568;2023-04-23T00:48:28;2.17;;;2.15;;
6249;SDS011;3158;52.148;11.568;2023-04-23T00:53:29;1.85;;;1.75;;
6249;SDS011;3158;52.148;11.568;2023-04-23T00:58:30;2.17;;;2.13;;
6249;SDS011;3158;52.148;11.568;2023-04-23T01:03:33;1.73;;;1.73;;
6249;SDS011;3158;52.148;11.568;2023-04-23T01:08:35;2.47;;;2.25;;
6249;SDS011;3158;52.148;11.568;2023-04-23T01:13:36;2.35;;;2.25;;
6249;SDS011;3158;52.148;11.568;2023-04-23T01:18:37;3.10;;;2.75;;
6249;SDS011;3158;52.148;11.568;2023-04-23T01:23:41;2.67;;;2.55;;
6249;SDS011;3158;52.148;11.568;2023-04-23T01:28:42;2.65;;;2.53;;
6249;SDS011;3158;52.148;11.568;2023-04-23T01:33:45;2.90;;;2.80;;
6249;SDS011;3158;52.148;11.568;2023-04-23T01:38:46;5.00;;;2.60;;
6249;SDS011;3158;52.148;11.568;2023-04-23T01:43:47;3.00;;;2.80;;
6249;SDS011;3158;52.148;11.568;2023-04-23T01:48:50;2.67;;;2.53;;
6249;SDS011;3158;52.148;11.568;2023-04-23T01:53:51;2.55;;;2.35;;
6249;SDS011;3158;52.148;11.568;2023-04-23T01:58:52;3.45;;;2.88;;
6249;SDS011;3158;52.148;11.568;2023-04-23T02:03:53;3.30;;;3.20;;
6249;SDS011;3158;52.148;11.568;2023-04-23T02:08:55;2.97;;;2.78;;
6249;SDS011;3158;52.148;11.568;2023-04-23T02:13:56;2.80;;;2.60;;
6249;SDS011;3158;52.148;11.568;2023-04-23T02:19:24;2.45;;;2.30;;
6249;SDS011;3158;52.148;11.568;2023-04-23T02:24:28;3.30;;;2.83;;
6249;SDS011;3158;52.148;11.568;2023-04-23T02:29:29;3.67;;;3.40;;
6249;SDS011;3158;52.148;11.568;2023-04-23T02:34:30;3.35;;;3.03;;
6249;SDS011;3158;52.148;11.568;2023-04-23T02:39:31;3.25;;;3.03;;
6249;SDS011;3158;52.148;11.568;2023-04-23T02:44:32;2.95;;;2.85;;
6249;SDS011;3158;52.148;11.568;2023-04-23T02:49:33;3.13;;;3.03;;
6249;SDS011;3158;52.148;11.568;2023-04-23T02:54:35;3.17;;;3.03;;
6249;SDS011;3158;52.148;11.568;2023-04-23T02:59:36;5.47;;;2.88;;
6249;SDS011;3158;52.148;11.568;2023-04-23T03:04:37;3.75;;;2.47;;
6249;SDS011;3158;52.148;11.568;2023-04-23T03:09:38;3.40;;;3.15;;
6249;SDS011;3158;52.148;11.568;2023-04-23T03:14:41;3.63;;;3.33;;
6249;SDS011;3158;52.148;11.568;2023-04-23T03:19:42;3.38;;;3.17;;
6249;SDS011;3158;52.148;11.568;2023-04-23T03:24:44;2.70;;;2.53;;
6249;SDS011;3158;52.148;11.568;2023-04-23T03:29:45;3.35;;;3.15;;
6249;SDS011;3158;52.148;11.568;2023-04-23T03:34:46;2.63;;;2.53;;
6249;SDS011;3158;52.148;11.568;2023-04-23T03:39:47;5.10;;;3.72;;
6249;SDS011;3158;52.148;11.568;2023-04-23T03:44:50;3.38;;;3.17;;
6249;SDS011;3158;52.148;11.568;2023-04-23T03:49:52;3.05;;;2.85;;
6249;SDS011;3158;52.148;11.568;2023-04-23T03:54:53;2.78;;;2.67;;
6249;SDS011;3158;52.148;11.568;2023-04-23T04:00:00;3.20;;;3.00;;
6249;SDS011;3158;52.148;11.568;2023-04-23T04:05:02;2.30;;;2.20;;
6249;SDS011;3158;52.148;11.568;2023-04-23T04:10:04;2.08;;;1.98;;
6249;SDS011;3158;52.148;11.568;2023-04-23T04:15:06;2.63;;;2.45;;
6249;SDS011;3158;52.148;11.568;2023-04-23T04:20:07;2.28;;;2.15;;
6249;SDS011;3158;52.148;11.568;2023-04-23T04:25:10;2.22;;;2.13;;
6249;SDS011;3158;52.148;11.568;2023-04-23T04:30:11;2.67;;;2.58;;
6249;SDS011;3158;52.148;11.568;2023-04-23T04:35:12;3.00;;;2.90;;
6249;SDS011;3158;52.148;11.568;2023-04-23T04:40:13;2.92;;;2.83;;
6249;SDS011;3158;52.148;11.568;2023-04-23T04:45:14;2.55;;;2.45;;
6249;SDS011;3158;52.148;11.568;2023-04-23T04:50:16;3.05;;;2.95;;
6249;SDS011;3158;52.148;11.568;2023-04-23T04:55:17;3.40;;;3.13;;
6249;SDS011;3158;52.148;11.568;2023-04-23T05:00:19;3.08;;;2.92;;
6249;SDS011;3158;52.148;11.568;2023-04-23T05:05:23;3.17;;;2.97;;
6249;SDS011;3158;52.148;11.568;2023-04-23T05:10:25;3.45;;;2.80;;
6249;SDS011;3158;52.148;11.568;2023-04-23T05:15:26;2.55;;;2.42;;
6249;SDS011;3158;52.148;11.568;2023-04-23T05:20:27;2.72;;;2.63;;
6249;SDS011;3158;52.148;11.568;2023-04-23T05:25:28;2.78;;;2.58;;
6249;SDS011;3158;52.148;11.568;2023-04-23T05:30:30;2.83;;;2.72;;
6249;SDS011;3158;52.148;11.568;2023-04-23T05:35:31;2.42;;;2.33;;
6249;SDS011;3158;52.148;11.568;2023-04-23T05:40:32;3.10;;;2.90;;
6249;SDS011;3158;52.148;11.568;2023-04-23T05:45:33;3.80;;;2.85;;
6249;SDS011;3158;52.148;11.568;2023-04-23T05:50:34;2.70;;;2.58;;
6249;SDS011;3158;52.148;11.568;2023-04-23T05:55:35;2.88;;;2.78;;
6249;SDS011;3158;52.148;11.568;2023-04-23T06:00:36;3.35;;;3.15;;
6249;SDS011;3158;52.148;11.568;2023-04-23T06:05:39;3.60;;;2.08;;
6249;SDS011;3158;52.148;11.568;2023-04-23T06:10:42;3.15;;;3.05;;
6249;SDS011;3158;52.148;11.568;2023-04-23T06:15:43;3.67;;;3.40;;
6249;SDS011;3158;52.148;11.568;2023-04-23T06:20:44;4.55;;;4.25;;
6249;SDS011;3158;52.148;11.568;2023-04-23T06:25:46;6.15;;;5.20;;
6249;SDS011;3158;52.148;11.568;2023-04-23T06:30:47;8.13;;;5.57;;
6249;SDS011;3158;52.148;11.568;2023-04-23T06:35:48;6.60;;;5.68;;
6249;SDS011;3158;52.148;11.568;2023-04-23T06:40:49;11.00;;;7.22;;
6249;SDS011;3158;52.148;11.568;2023-04-23T06:45:50;13.93;;;10.35;;
6249;SDS011;3158;52.148;11.568;2023-04-23T06:50:51;23.13;;;10.05;;
6249;SDS011;3158;52.148;11.568;2023-04-23T06:55:52;23.85;;;12.25;;
6249;SDS011;3158;52.148;11.568;2023-04-23T07:00:53;23.05;;;12.57;;
6249;SDS011;3158;52.148;11.568;2023-04-23T07:05:55;21.92;;;12.02;;
6249;SDS011;3158;52.148;11.568;2023-04-23T07:10:56;23.70;;;12.68;;
6249;SDS011;3158;52.148;11.568;2023-04-23T07:15:57;24.90;;;13.52;;
6249;SDS011;3158;52.148;11.568;2023-04-23T07:20:59;26.08;;;14.00;;
6249;SDS011;3158;52.148;11.568;2023-04-23T07:26:00;26.50;;;14.10;;
6249;SDS011;3158;52.148;11.568;2023-04-23T07:31:01;22.83;;;13.15;;
6249;SDS011;3158;52.148;11.568;2023-04-23T07:36:02;19.13;;;11.65;;
6249;SDS011;3158;52.148;11.568;2023-04-23T07:41:03;26.02;;;13.98;;
6249;SDS011;3158;52.148;11.568;2023-04-23T07:46:04;25.35;;;14.10;;
6249;SDS011;3158;52.148;11.568;2023-04-23T07:51:05;21.90;;;12.60;;
6249;SDS011;3158;52.148;11.568;2023-04-23T07:56:06;22.70;;;13.30;;
6249;SDS011;3158;52.148;11.568;2023-04-23T08:01:07;24.88;;;14.43;;
6249;SDS011;3158;52.148;11.568;2023-04-23T08:06:09;23.48;;;12.82;;
6249;SDS011;3158;52.148;11.568;2023-04-23T08:11:11;21.10;;;12.25;;
6249;SDS011;3158;52.148;11.568;2023-04-23T08:16:12;20.25;;;12.63;;
6249;SDS011;3158;52.148;11.568;2023-04-23T08:21:13;19.10;;;12.13;;
6249;SDS011;3158;52.148;11.568;2023-04-23T08:26:14;22.05;;;12.88;;
6249;SDS011;3158;52.148;11.568;2023-04-23T08:31:15;19.67;;;11.57;;
6249;SDS011;3158;52.148;11.568;2023-04-23T08:36:16;18.40;;;11.48;;
6249;SDS011;3158;52.148;11.568;2023-04-23T08:41:17;17.75;;;10.73;;
6249;SDS011;3158;52.148;11.568;2023-04-23T08:46:20;17.02;;;11.48;;
6249;SDS011;3158;52.148;11.568;2023-04-23T08:51:22;15.40;;;10.73;;
6249;SDS011;3158;52.148;11.568;2023-04-23T08:56:24;14.10;;;10.45;;
6249;SDS011;3158;52.148;11.568;2023-04-23T09:01:26;14.55;;;10.48;;
6249;SDS011;3158;52.148;11.568;2023-04-23T09:06:28;16.85;;;10.63;;
6249;SDS011;3158;52.148;11.568;2023-04-23T09:11:31;12.18;;;9.48;;
6249;SDS011;3158;52.148;11.568;2023-04-23T09:16:32;13.27;;;9.25;;
6249;SDS011;3158;52.148;11.568;2023-04-23T09:21:33;11.32;;;9.02;;
6249;SDS011;3158;52.148;11.568;2023-04-23T09:26:34;11.70;;;8.40;;
6249;SDS011;3158;52.148;11.568;2023-04-23T09:31:36;7.63;;;6.82;;
6249;SDS011;3158;52.148;11.568;2023-04-23T09:36:37;9.35;;;8.10;;
6249;SDS011;3158;52.148;11.568;2023-04-23T09:41:38;9.70;;;7.93;;
6249;SDS011;3158;52.148;11.568;2023-04-23T09:46:40;7.25;;;6.28;;
6249;SDS011;3158;52.148;11.568;2023-04-23T09:51:43;5.88;;;5.07;;
6249;SDS011;3158;52.148;11.568;2023-04-23T09:56:48;5.05;;;4.60;;
6249;SDS011;3158;52.148;11.568;2023-04-23T10:01:50;4.72;;;4.32;;
6249;SDS011;3158;52.148;11.568;2023-04-23T10:06:55;4.65;;;4.18;;
6249;SDS011;3158;52.148;11.568;2023-04-23T10:11:57;5.72;;;5.32;;
6249;SDS011;3158;52.148;11.568;2023-04-23T10:16:59;6.22;;;5.63;;
6249;SDS011;3158;52.148;11.568;2023-04-23T10:22:00;6.38;;;5.28;;
6249;SDS011;3158;52.148;11.568;2023-04-23T10:27:09;7.18;;;6.22;;
6249;SDS011;3158;52.148;11.568;2023-04-23T10:32:10;9.10;;;6.85;;
6249;SDS011;3158;52.148;11.568;2023-04-23T10:37:12;6.35;;;5.85;;
6249;SDS011;3158;52.148;11.568;2023-04-23T10:42:20;7.22;;;6.53;;
6249;SDS011;3158;52.148;11.568;2023-04-23T10:47:21;8.57;;;7.78;;
6249;SDS011;3158;52.148;11.568;2023-04-23T10:52:22;7.55;;;6.85;;
6249;SDS011;3158;52.148;11.568;2023-04-23T10:57:23;8.35;;;7.65;;
6249;SDS011;3158;52.148;11.568;2023-04-23T11:02:24;8.10;;;7.32;;
6249;SDS011;3158;52.148;11.568;2023-04-23T11:07:29;8.13;;;7.32;;
6249;SDS011;3158;52.148;11.568;2023-04-23T11:12:31;8.10;;;7.28;;
6249;SDS011;3158;52.148;11.568;2023-04-23T11:22:33;6.30;;;5.78;;
6249;SDS011;3158;52.148;11.568;2023-04-23T11:27:39;4.47;;;4.07;;
6249;SDS011;3158;52.148;11.568;2023-04-23T11:32:41;4.88;;;4.47;;
6249;SDS011;3158;52.148;11.568;2023-04-23T11:37:44;4.13;;;3.90;;
6249;SDS011;3158;52.148;11.568;2023-04-23T11:47:47;3.78;;;3.47;;
6249;SDS011;3158;52.148;11.568;2023-04-23T11:52:49;3.45;;;3.15;;
6249;SDS011;3158;52.148;11.568;2023-04-23T11:57:51;3.55;;;3.35;;
6249;SDS011;3158;52.148;11.568;2023-04-23T12:02:53;2.92;;;2.83;;
6249;SDS011;3158;52.148;11.568;2023-04-23T12:08:04;2.10;;;2.10;;
6249;SDS011;3158;52.148;11.568;2023-04-23T12:13:06;2.40;;;2.30;;
6249;SDS011;3158;52.148;11.568;2023-04-23T12:18:07;2.22;;;2.22;;
6249;SDS011;3158;52.148;11.568;2023-04-23T12:23:10;2.75;;;2.60;;
6249;SDS011;3158;52.148;11.568;2023-04-23T12:28:11;2.58;;;2.58;;
6249;SDS011;3158;52.148;11.568;2023-04-23T12:33:12;1.77;;;1.70;;
6249;SDS011;3158;52.148;11.568;2023-04-23T12:38:23;2.45;;;2.45;;
6249;SDS011;3158;52.148;11.568;2023-04-23T12:43:24;2.10;;;2.10;;
6249;SDS011;3158;52.148;11.568;2023-04-23T12:48:26;2.35;;;1.90;;
6249;SDS011;3158;52.148;11.568;2023-04-23T12:53:27;1.75;;;1.65;;
6249;SDS011;3158;52.148;11.568;2023-04-23T12:58:28;2.00;;;1.90;;
6249;SDS011;3158;52.148;11.568;2023-04-23T13:03:30;1.15;;;1.15;;
6249;SDS011;3158;52.148;11.568;2023-04-23T13:08:31;1.17;;;1.17;;
6249;SDS011;3158;52.148;11.568;2023-04-23T13:13:32;1.08;;;1.08;;
6249;SDS011;3158;52.148;11.568;2023-04-23T13:18:33;1.00;;;1.00;;
6249;SDS011;3158;52.148;11.568;2023-04-23T13:23:34;1.08;;;1.05;;
6249;SDS011;3158;52.148;11.568;2023-04-23T13:28:35;0.90;;;0.90;;
6249;SDS011;3158;52.148;11.568;2023-04-23T13:33:37;0.82;;;0.82;;
6249;SDS011;3158;52.148;11.568;2023-04-23T13:38:38;1.20;;;1.20;;
6249;SDS011;3158;52.148;11.568;2023-04-23T13:43:39;1.13;;;1.13;;
6249;SDS011;3158;52.148;11.568;2023-04-23T13:48:40;0.73;;;0.73;;
6249;SDS011;3158;52.148;11.568;2023-04-23T13:53:41;0.73;;;0.73;;
6249;SDS011;3158;52.148;11.568;2023-04-23T13:58:42;0.65;;;0.50;;
6249;SDS011;3158;52.148;11.568;2023-04-23T14:03:46;0.95;;;0.95;;
6249;SDS011;3158;52.148;11.568;2023-04-23T14:08:47;0.80;;;0.80;;
6249;SDS011;3158;52.148;11.568;2023-04-23T14:13:48;0.60;;;0.60;;
6249;SDS011;3158;52.148;11.568;2023-04-23T14:18:49;0.70;;;0.70;;
6249;SDS011;3158;52.148;11.568;2023-04-23T14:23:54;0.70;;;0.70;;
6249;SDS011;3158;52.148;11.568;2023-04-23T14:28:57;0.70;;;0.70;;
6249;SDS011;3158;52.148;11.568;2023-04-23T14:34:01;0.60;;;0.60;;
6249;SDS011;3158;52.148;11.568;2023-04-23T14:39:02;0.60;;;0.60;;
6249;SDS011;3158;52.148;11.568;2023-04-23T14:44:04;0.80;;;0.63;;
6249;SDS011;3158;52.148;11.568;2023-04-23T14:49:05;0.63;;;0.63;;
6249;SDS011;3158;52.148;11.568;2023-04-23T14:54:06;0.70;;;0.70;;
6249;SDS011;3158;52.148;11.568;2023-04-23T14:59:07;0.50;;;0.50;;
6249;SDS011;3158;52.148;11.568;2023-04-23T15:04:09;0.50;;;0.50;;
6249;SDS011;3158;52.148;11.568;2023-04-23T15:09:10;0.60;;;0.50;;
6249;SDS011;3158;52.148;11.568;2023-04-23T15:14:25;0.65;;;0.65;;
6249;SDS011;3158;52.148;11.568;2023-04-23T15:19:30;0.60;;;0.60;;
6249;SDS011;3158;52.148;11.568;2023-04-23T15:24:31;1.55;;;0.60;;
6249;SDS011;3158;52.148;11.568;2023-04-23T15:29:32;0.60;;;0.60;;
6249;SDS011;3158;52.148;11.568;2023-04-23T15:34:33;0.70;;;0.70;;
6249;SDS011;3158;52.148;11.568;2023-04-23T15:39:34;1.10;;;0.60;;
6249;SDS011;3158;52.148;11.568;2023-04-23T15:44:36;1.17;;;0.60;;
6249;SDS011;3158;52.148;11.568;2023-04-23T15:49:37;1.00;;;0.60;;
6249;SDS011;3158;52.148;11.568;2023-04-23T15:54:38;0.90;;;0.90;;
6249;SDS011;3158;52.148;11.568;2023-04-23T15:59:39;0.80;;;0.80;;
6249;SDS011;3158;52.148;11.568;2023-04-23T16:04:40;0.90;;;0.90;;
6249;SDS011;3158;52.148;11.568;2023-04-23T16:09:41;0.88;;;0.88;;
6249;SDS011;3158;52.148;11.568;2023-04-23T16:14:42;3.35;;;0.80;;
6249;SDS011;3158;52.148;11.568;2023-04-23T16:19:43;0.85;;;0.85;;
6249;SDS011;3158;52.148;11.568;2023-04-23T16:24:45;0.90;;;0.90;;
6249;SDS011;3158;52.148;11.568;2023-04-23T16:29:46;0.65;;;0.65;;
6249;SDS011;3158;52.148;11.568;2023-04-23T16:34:47;0.70;;;0.70;;
6249;SDS011;3158;52.148;11.568;2023-04-23T16:39:48;0.68;;;0.68;;
6249;SDS011;3158;52.148;11.568;2023-04-23T16:44:49;0.70;;;0.70;;
6249;SDS011;3158;52.148;11.568;2023-04-23T16:49:51;0.50;;;0.50;;
6249;SDS011;3158;52.148;11.568;2023-04-23T16:54:52;1.17;;;0.55;;
6249;SDS011;3158;52.148;11.568;2023-04-23T16:59:53;0.73;;;0.73;;
6249;SDS011;3158;52.148;11.568;2023-04-23T17:04:54;1.55;;;0.60;;
6249;SDS011;3158;52.148;11.568;2023-04-23T17:09:55;0.50;;;0.50;;
6249;SDS011;3158;52.148;11.568;2023-04-23T17:14:56;2.47;;;0.50;;
6249;SDS011;3158;52.148;11.568;2023-04-23T17:19:57;0.50;;;0.50;;
6249;SDS011;3158;52.148;11.568;2023-04-23T17:24:58;0.60;;;0.60;;
6249;SDS011;3158;52.148;11.568;2023-04-23T17:29:59;0.68;;;0.68;;
6249;SDS011;3158;52.148;11.568;2023-04-23T17:35:00;0.68;;;0.50;;
6249;SDS011;3158;52.148;11.568;2023-04-23T17:40:01;2.05;;;0.55;;
6249;SDS011;3158;52.148;11.568;2023-04-23T17:45:04;0.52;;;0.52;;
6249;SDS011;3158;52.148;11.568;2023-04-23T17:50:05;1.85;;;0.70;;
6249;SDS011;3158;52.148;11.568;2023-04-23T17:55:09;0.63;;;0.50;;
6249;SDS011;3158;52.148;11.568;2023-04-23T18:00:10;0.50;;;0.50;;
6249;SDS011;3158;52.148;11.568;2023-04-23T18:05:13;1.17;;;0.75;;
6249;SDS011;3158;52.148;11.568;2023-04-23T18:10:14;0.68;;;0.68;;
6249;SDS011;3158;52.148;11.568;2023-04-23T18:15:15;0.50;;;0.50;;
6249;SDS011;3158;52.148;11.568;2023-04-23T18:20:17;9.35;;;5.43;;
6249;SDS011;3158;52.148;11.568;2023-04-23T18:25:18;13.85;;;8.18;;
6249;SDS011;3158;52.148;11.568;2023-04-23T18:30:19;5.25;;;4.03;;
6249;SDS011;3158;52.148;11.568;2023-04-23T18:35:22;18.83;;;11.32;;
6249;SDS011;3158;52.148;11.568;2023-04-23T18:40:23;6.35;;;5.75;;
6249;SDS011;3158;52.148;11.568;2023-04-23T18:45:24;19.25;;;13.05;;
6249;SDS011;3158;52.148;11.568;2023-04-23T18:50:29;7.68;;;7.00;;
6249;SDS011;3158;52.148;11.568;2023-04-23T18:55:30;7.90;;;6.30;;
6249;SDS011;3158;52.148;11.568;2023-04-23T19:00:31;3.88;;;3.58;;
6249;SDS011;3158;52.148;11.568;2023-04-23T19:05:33;48.35;;;29.48;;
6249;SDS011;3158;52.148;11.568;2023-04-23T19:10:33;26.80;;;18.42;;
6249;SDS011;3158;52.148;11.568;2023-04-23T19:15:34;44.67;;;27.75;;
6249;SDS011;3158;52.148;11.568;2023-04-23T19:20:36;20.42;;;13.27;;
6249;SDS011;3158;52.148;11.568;2023-04-23T19:25:37;46.67;;;28.05;;
6249;SDS011;3158;52.148;11.568;2023-04-23T19:30:38;6.57;;;5.95;;
6249;SDS011;3158;52.148;11.568;2023-04-23T19:35:39;7.95;;;7.35;;
6249;SDS011;3158;52.148;11.568;2023-04-23T19:40:40;6.97;;;6.30;;
6249;SDS011;3158;52.148;11.568;2023-04-23T19:45:41;1.52;;;1.30;;
6249;SDS011;3158;52.148;11.568;2023-04-23T19:50:42;0.98;;;0.93;;
6249;SDS011;3158;52.148;11.568;2023-04-23T19:55:43;2.33;;;0.85;;
6249;SDS011;3158;52.148;11.568;2023-04-23T20:00:45;0.98;;;0.98;;
6249;SDS011;3158;52.148;11.568;2023-04-23T20:05:46;0.70;;;0.70;;
6249;SDS011;3158;52.148;11.568;2023-04-23T20:10:48;2.50;;;0.80;;
6249;SDS011;3158;52.148;11.568;2023-04-23T20:15:49;1.65;;;0.82;;
6249;SDS011;3158;52.148;11.568;2023-04-23T20:20:52;0.75;;;0.75;;
6249;SDS011;3158;52.148;11.568;2023-04-23T20:25:53;0.98;;;0.98;;
6249;SDS011;3158;52.148;11.568;2023-04-23T20:30:54;1.20;;;0.85;;
6249;SDS011;3158;52.148;11.568;2023-04-23T20:35:56;1.10;;;1.10;;
6249;SDS011;3158;52.148;11.568;2023-04-23T20:40:57;2.47;;;0.90;;
6249;SDS011;3158;52.148;11.568;2023-04-23T20:46:01;1.10;;;1.00;;
6249;SDS011;3158;52.148;11.568;2023-04-23T20:51:02;2.92;;;0.98;;
6249;SDS011;3158;52.148;11.568;2023-04-23T20:56:03;0.95;;;0.70;;
6249;SDS011;3158;52.148;11.568;2023-04-23T21:01:04;1.48;;;0.80;;
6249;SDS011;3158;52.148;11.568;2023-04-23T21:06:07;0.80;;;0.80;;
6249;SDS011;3158;52.148;11.568;2023-04-23T21:11:09;1.08;;;1.00;;
6249;SDS011;3158;52.148;11.568;2023-04-23T21:16:12;0.80;;;0.80;;
6249;SDS011;3158;52.148;11.568;2023-04-23T21:21:14;1.33;;;1.25;;
6249;SDS011;3158;52.148;11.568;2023-04-23T21:26:15;0.98;;;0.98;;
6249;SDS011;3158;52.148;11.568;2023-04-23T21:31:16;1.70;;;1.00;;
6249;SDS011;3158;52.148;11.568;2023-04-23T21:36:21;1.10;;;0.98;;
6249;SDS011;3158;52.148;11.568;2023-04-23T21:41:22;1.00;;;1.00;;
6249;SDS011;3158;52.148;11.568;2023-04-23T21:46:23;1.00;;;1.00;;
6249;SDS011;3158;52.148;11.568;2023-04-23T21:51:24;2.15;;;1.00;;
6249;SDS011;3158;52.148;11.568;2023-04-23T21:56:27;1.52;;;1.10;;
6249;SDS011;3158;52.148;11.568;2023-04-23T22:01:28;2.90;;;0.90;;
6249;SDS011;3158;52.148;11.568;2023-04-23T22:06:30;1.10;;;1.10;;
6249;SDS011;3158;52.148;11.568;2023-04-23T22:11:33;0.80;;;0.80;;
6249;SDS011;3158;52.148;11.568;2023-04-23T22:16:34;1.05;;;1.05;;
6249;SDS011;3158;52.148;11.568;2023-04-23T22:21:35;2.33;;;1.00;;
6249;SDS011;3158;52.148;11.568;2023-04-23T22:26:36;1.48;;;1.10;;
6249;SDS011;3158;52.148;11.568;2023-04-23T22:31:38;0.90;;;0.90;;
6249;SDS011;3158;52.148;11.568;2023-04-23T22:36:39;1.05;;;0.93;;
6249;SDS011;3158;52.148;11.568;2023-04-23T22:41:42;1.25;;;0.80;;
6249;SDS011;3158;52.148;11.568;2023-04-23T22:46:43;0.90;;;0.90;;
6249;SDS011;3158;52.148;11.568;2023-04-23T22:51:44;0.98;;;0.98;;
6249;SDS011;3158;52.148;11.568;2023-04-23T22:56:45;1.50;;;1.40;;
6249;SDS011;3158;52.148;11.568;2023-04-23T23:01:47;1.85;;;1.20;;
6249;SDS011;3158;52.148;11.568;2023-04-23T23:06:48;2.15;;;1.10;;
6249;SDS011;3158;52.148;11.568;2023-04-23T23:11:49;1.13;;;1.13;;
6249;SDS011;3158;52.148;11.568;2023-04-23T23:16:50;0.90;;;0.90;;
6249;SDS011;3158;52.148;11.568;2023-04-23T23:21:51;1.45;;;1.02;;
6249;SDS011;3158;52.148;11.568;2023-04-23T23:26:52;1.08;;;1.08;;
6249;SDS011;3158;52.148;11.568;2023-04-23T23:31:55;1.13;;;1.13;;
6249;SDS011;3158;52.148;11.568;2023-04-23T23:36:56;1.23;;;1.13;;
6249;SDS011;3158;52.148;11.568;2023-04-23T23:41:57;2.67;;;1.90;;
6249;SDS011;3158;52.148;11.568;2023-04-23T23:46:58;1.83;;;1.80;;
6249;SDS011;3158;52.148;11.568;2023-04-23T23:52:00;2.60;;;2.17;;
6249;SDS011;3158;52.148;11.568;2023-04-23T23:57:01;1.90;;;1.80;;
